Time;durP1;ratioP1;P1;durP2;ratioP2;P2;SDS_P1;SDS_P2;PMS_P1;PMS_P2;Temp;Humidity;BMP_temperature;BMP_pressure;BME280_temperature;BME280_humidity;BME280_pressure;Samples;Min_cycle;Max_cycle;Signal;HPM_P1;HPM_P2
2021/01/23 00:00:52;;;;;;;17.52;11.77;;;231.20;1920.00;;;;;;4879606;29;20727;-80
2021/01/23 00:03:20;;;;;;;14.07;10.05;;;231.20;1945.60;;;;;;4881367;29;20104;-81
2021/01/23 00:05:46;;;;;;;14.90;10.07;;;231.20;1920.00;;;;;;4881515;29;20500;-82
2021/01/23 00:08:12;;;;;;;15.50;9.75;;;231.20;1945.60;;;;;;4880080;29;20049;-80
2021/01/23 00:10:39;;;;;;;14.35;9.10;;;231.20;1920.00;;;;;;4898005;29;20060;-82
2021/01/23 00:13:05;;;;;;;16.65;10.02;;;231.30;1920.00;;;;;;4899792;29;20039;-82
2021/01/23 00:15:30;;;;;;;15.52;8.93;;;231.30;1920.00;;;;;;4899245;29;20037;-81
2021/01/23 00:17:56;;;;;;;13.50;10.45;;;256.00;1894.40;;;;;;4890672;29;20033;-80
2021/01/23 00:20:22;;;;;;;16.58;10.68;;;256.10;1894.40;;;;;;4879363;29;20127;-81
2021/01/23 00:22:47;;;;;;;16.75;10.20;;;256.10;1868.80;;;;;;4880637;29;20077;-80
2021/01/23 00:25:13;;;;;;;14.90;9.10;;;256.10;1868.80;;;;;;4881345;29;20029;-81
2021/01/23 00:27:40;;;;;;;11.75;8.85;;;256.20;1868.80;;;;;;4878741;29;20191;-82
2021/01/23 00:30:07;;;;;;;12.70;9.50;;;256.20;1868.80;;;;;;4879764;29;20032;-80
2021/01/23 00:32:32;;;;;;;11.73;8.00;;;256.20;1868.80;;;;;;4878420;29;20040;-80
2021/01/23 00:34:58;;;;;;;12.73;7.40;;;256.20;1868.80;;;;;;4878280;29;20033;-80
2021/01/23 00:37:24;;;;;;;12.82;8.73;;;256.30;1868.80;;;;;;4878500;29;20093;-80
2021/01/23 00:39:49;;;;;;;11.65;7.82;;;256.30;1868.80;;;;;;4879063;29;20045;-80
2021/01/23 00:42:15;;;;;;;10.35;7.10;;;256.20;1868.80;;;;;;4879740;29;20477;-80
2021/01/23 00:44:41;;;;;;;11.18;7.32;;;256.20;1868.80;;;;;;4878558;29;20065;-80
2021/01/23 00:47:06;;;;;;;14.82;10.27;;;256.20;1868.80;;;;;;4879764;29;20040;-80
2021/01/23 00:49:32;;;;;;;11.82;8.25;;;256.20;1868.80;;;;;;4878095;29;20131;-80
2021/01/23 00:51:58;;;;;;;11.50;7.88;;;256.30;1843.20;;;;;;4879733;29;20815;-79
2021/01/23 00:54:23;;;;;;;13.02;8.27;;;256.30;1843.20;;;;;;4878677;29;20028;-80
2021/01/23 00:56:49;;;;;;;14.82;8.60;;;256.40;1817.60;;;;;;4878004;29;20040;-80
2021/01/23 00:59:16;;;;;;;14.65;7.95;;;256.40;1817.60;;;;;;4878386;29;20465;-78
2021/01/23 01:01:44;;;;;;;9.05;6.78;;;256.40;1817.60;;;;;;4878234;29;20029;-80
2021/01/23 01:04:10;;;;;;;12.80;7.90;;;256.40;1817.60;;;;;;4879175;29;20036;-79
2021/01/23 01:06:36;;;;;;;11.95;8.98;;;256.40;1817.60;;;;;;4879785;29;20029;-80
2021/01/23 01:09:02;;;;;;;12.68;7.35;;;256.50;1792.00;;;;;;4877982;29;20497;-79
2021/01/23 01:11:27;;;;;;;11.50;7.22;;;256.50;1792.00;;;;;;4878295;29;20392;-79
2021/01/23 01:13:53;;;;;;;9.73;7.22;;;256.50;1792.00;;;;;;4877527;29;20033;-78
2021/01/23 01:16:19;;;;;;;12.80;7.53;;;256.50;1792.00;;;;;;4877730;29;20025;-79
2021/01/23 01:18:44;;;;;;;12.02;8.40;;;256.50;1792.00;;;;;;4877548;29;20037;-79
2021/01/23 01:21:10;;;;;;;11.30;8.40;;;256.60;1792.00;;;;;;4878246;29;20032;-79
2021/01/23 01:23:36;;;;;;;13.43;6.65;;;256.50;1792.00;;;;;;4879103;29;20033;-79
2021/01/23 01:26:01;;;;;;;11.18;8.10;;;256.50;1792.00;;;;;;4878638;29;20025;-79
2021/01/23 01:28:27;;;;;;;12.30;7.90;;;256.60;1792.00;;;;;;4877959;29;20119;-80
2021/01/23 01:30:53;;;;;;;14.40;7.40;;;256.60;1766.40;;;;;;4878533;29;20089;-79
2021/01/23 01:33:19;;;;;;;9.88;6.75;;;256.60;1766.40;;;;;;4878004;29;20121;-79
2021/01/23 01:35:44;;;;;;;10.82;7.05;;;256.60;1766.40;;;;;;4879106;29;20033;-79
2021/01/23 01:38:10;;;;;;;10.48;6.88;;;256.60;1766.40;;;;;;4878225;29;20032;-80
2021/01/23 01:40:36;;;;;;;16.25;7.72;;;256.60;1766.40;;;;;;4880115;29;20041;-80
2021/01/23 01:43:01;;;;;;;14.70;7.70;;;256.70;1766.40;;;;;;4878263;29;20044;-79
2021/01/23 01:45:27;;;;;;;12.85;7.43;;;256.70;1766.40;;;;;;4879403;29;20025;-80
2021/01/23 01:47:54;;;;;;;11.73;7.07;;;256.70;1766.40;;;;;;4879495;29;20079;-80
2021/01/23 01:50:20;;;;;;;10.10;7.40;;;256.60;1766.40;;;;;;4878033;29;20453;-80
2021/01/23 01:52:46;;;;;;;11.25;8.27;;;256.70;1766.40;;;;;;4878175;29;20112;-79
2021/01/23 01:55:13;;;;;;;8.98;7.05;;;256.70;1766.40;;;;;;4880361;29;20032;-80
2021/01/23 01:57:39;;;;;;;10.02;6.88;;;256.70;1766.40;;;;;;4879217;29;20374;-80
2021/01/23 02:00:08;;;;;;;12.50;7.68;;;256.70;1766.40;;;;;;4879491;29;20148;-80
2021/01/23 02:02:47;;;;;;;14.50;8.45;;;256.70;1740.80;;;;;;4876987;29;20041;-79
2021/01/23 02:05:25;;;;;;;12.15;7.43;;;256.70;1766.40;;;;;;4880449;29;20029;-79
2021/01/23 02:08:19;;;;;;;13.68;7.22;;;256.70;1740.80;;;;;;4879472;29;20033;-80
2021/01/23 02:11:01;;;;;;;12.95;7.97;;;256.70;1740.80;;;;;;4863235;29;20029;-79
2021/01/23 02:13:30;;;;;;;11.98;8.45;;;256.70;1740.80;;;;;;4880070;29;20027;-80
2021/01/23 02:16:09;;;;;;;12.80;8.98;;;256.70;1740.80;;;;;;4868117;29;20029;-79
2021/01/23 02:18:40;;;;;;;12.35;7.68;;;256.70;1766.40;;;;;;4867147;29;20029;-79
2021/01/23 02:21:25;;;;;;;10.88;6.68;;;256.70;1740.80;;;;;;4866501;29;20037;-79
2021/01/23 02:23:52;;;;;;;10.45;7.78;;;256.70;1740.80;;;;;;4867847;29;20481;-80
2021/01/23 02:26:33;;;;;;;14.82;8.05;;;256.80;1740.80;;;;;;4882885;29;20037;-80
2021/01/23 02:29:14;;;;;;;15.35;7.65;;;256.80;1740.80;;;;;;4866115;29;20053;-80
2021/01/23 02:31:51;;;;;;;12.90;7.97;;;256.80;1740.80;;;;;;4866683;29;20033;-79
2021/01/23 02:34:21;;;;;;;11.95;8.10;;;256.80;1740.80;;;;;;4882815;29;20194;-79
2021/01/23 02:36:48;;;;;;;12.88;7.43;;;256.80;1740.80;;;;;;4884606;29;20584;-79
2021/01/23 02:39:15;;;;;;;10.60;7.00;;;256.70;1766.40;;;;;;4866833;29;20568;-79
2021/01/23 02:41:43;;;;;;;10.57;7.32;;;256.70;1740.80;;;;;;4866035;29;20037;-79
2021/01/23 02:44:09;;;;;;;9.80;6.28;;;256.70;1766.40;;;;;;4866834;29;20139;-79
2021/01/23 02:46:34;;;;;;;9.80;6.80;;;256.70;1766.40;;;;;;4882978;29;20449;-79
2021/01/23 02:49:00;;;;;;;9.93;6.60;;;256.70;1766.40;;;;;;4866969;29;20061;-80
2021/01/23 02:51:38;;;;;;;8.85;6.43;;;256.60;1766.40;;;;;;4884129;29;20105;-80
2021/01/23 02:54:14;;;;;;;13.73;8.23;;;256.60;1766.40;;;;;;4867802;29;20029;-80
2021/01/23 02:56:42;;;;;;;9.90;6.50;;;256.60;1766.40;;;;;;4867073;29;20453;-80
2021/01/23 02:59:11;;;;;;;12.88;6.60;;;256.60;1766.40;;;;;;4867284;29;20127;-80
2021/01/23 03:01:41;;;;;;;11.30;6.50;;;256.60;1792.00;;;;;;4868492;29;20065;-80
2021/01/23 03:04:08;;;;;;;13.05;6.72;;;256.60;1792.00;;;;;;4865975;29;20029;-80
2021/01/23 03:06:37;;;;;;;16.13;7.35;;;256.60;1792.00;;;;;;4882189;29;20035;-79
2021/01/23 03:09:16;;;;;;;13.18;6.53;;;256.60;1766.40;;;;;;4872655;29;20544;-80
2021/01/23 03:11:43;;;;;;;10.43;6.90;;;256.60;1766.40;;;;;;4882533;29;20037;-81
2021/01/23 03:14:08;;;;;;;12.77;6.88;;;256.60;1766.40;;;;;;4874991;29;20036;-81
2021/01/23 03:16:34;;;;;;;12.88;6.95;;;256.60;1766.40;;;;;;4881038;29;20017;-81
2021/01/23 03:19:00;;;;;;;14.88;6.55;;;256.60;1766.40;;;;;;4881006;29;20087;-80
2021/01/23 03:21:25;;;;;;;8.80;6.15;;;256.60;1766.40;;;;;;4881903;29;20765;-81
2021/01/23 03:23:51;;;;;;;12.80;6.78;;;256.60;1766.40;;;;;;4883056;29;20029;-80
2021/01/23 03:26:16;;;;;;;10.18;6.43;;;256.70;1740.80;;;;;;4880830;29;20132;-81
2021/01/23 03:28:42;;;;;;;9.88;6.18;;;256.70;1740.80;;;;;;4883277;29;20089;-80
2021/01/23 03:31:08;;;;;;;9.07;5.07;;;256.80;1715.20;;;;;;4881159;29;20025;-80
2021/01/23 03:33:33;;;;;;;8.13;5.45;;;256.90;1715.20;;;;;;4880170;29;20477;-80
2021/01/23 03:35:59;;;;;;;10.85;6.53;;;281.60;1715.20;;;;;;4880301;29;20393;-81
2021/01/23 03:38:25;;;;;;;8.93;5.80;;;281.70;1715.20;;;;;;4880475;29;20111;-81
2021/01/23 03:40:50;;;;;;;9.68;5.95;;;281.70;1715.20;;;;;;4880123;29;20029;-80
2021/01/23 03:43:16;;;;;;;8.40;5.28;;;281.70;1715.20;;;;;;4878503;29;20064;-80
2021/01/23 03:45:42;;;;;;;10.18;5.90;;;281.80;1715.20;;;;;;4880804;29;20033;-80
2021/01/23 03:48:08;;;;;;;10.23;6.03;;;281.80;1715.20;;;;;;4878826;29;20025;-80
2021/01/23 03:50:33;;;;;;;9.85;5.97;;;281.80;1715.20;;;;;;4880007;29;20040;-79
2021/01/23 03:52:59;;;;;;;7.57;5.85;;;281.80;1715.20;;;;;;4881665;29;20029;-81
2021/01/23 03:55:25;;;;;;;9.07;5.53;;;281.90;1689.60;;;;;;4881760;29;20025;-80
2021/01/23 03:57:50;;;;;;;13.02;6.70;;;281.90;1715.20;;;;;;4880505;29;20029;-80
2021/01/23 04:00:16;;;;;;;9.70;5.38;;;281.80;1689.60;;;;;;4880378;29;20090;-80
2021/01/23 04:02:42;;;;;;;8.82;5.50;;;281.90;1689.60;;;;;;4882020;29;20033;-82
2021/01/23 04:05:08;;;;;;;18.98;5.93;;;281.90;1715.20;;;;;;4881954;29;20104;-81
2021/01/23 04:07:35;;;;;;;10.40;7.20;;;281.80;1689.60;;;;;;4878521;29;20041;-80
2021/01/23 04:10:02;;;;;;;11.07;6.38;;;281.90;1689.60;;;;;;4879370;29;20057;-80
2021/01/23 04:12:27;;;;;;;8.82;5.55;;;281.90;1689.60;;;;;;4879223;29;20115;-79
2021/01/23 04:14:53;;;;;;;15.82;6.82;;;282.00;1689.60;;;;;;4880456;29;20068;-79
2021/01/23 04:17:19;;;;;;;9.20;6.38;;;282.00;1664.00;;;;;;4879397;29;20084;-80
2021/01/23 04:19:44;;;;;;;11.90;8.05;;;282.00;1664.00;;;;;;4881290;29;20025;-82
2021/01/23 04:22:10;;;;;;;16.10;7.05;;;282.00;1664.00;;;;;;4880210;29;20037;-81
2021/01/23 04:24:36;;;;;;;12.38;6.25;;;282.00;1689.60;;;;;;4880590;29;20036;-80
2021/01/23 04:27:04;;;;;;;12.30;7.15;;;281.90;1689.60;;;;;;4882586;29;20029;-82
2021/01/23 04:29:30;;;;;;;11.90;5.82;;;281.90;1689.60;;;;;;4880708;29;20090;-82
2021/01/23 04:31:56;;;;;;;9.98;6.15;;;281.90;1715.20;;;;;;4879753;29;20124;-81
2021/01/23 04:34:21;;;;;;;13.13;6.55;;;281.80;1715.20;;;;;;4881337;29;20025;-80
2021/01/23 04:36:47;;;;;;;13.60;7.38;;;281.80;1715.20;;;;;;4878632;29;20040;-80
2021/01/23 04:39:13;;;;;;;10.25;6.57;;;281.70;1740.80;;;;;;4879403;29;20511;-80
2021/01/23 04:41:38;;;;;;;11.65;7.18;;;281.70;1740.80;;;;;;4879358;29;20039;-80
2021/01/23 04:44:05;;;;;;;11.32;7.50;;;281.60;1740.80;;;;;;4877517;29;20068;-80
2021/01/23 04:46:32;;;;;;;15.77;9.20;;;281.60;1766.40;;;;;;4879184;29;20029;-80
2021/01/23 04:48:58;;;;;;;9.23;6.05;;;256.90;1740.80;;;;;;4880330;29;20057;-80
2021/01/23 04:51:26;;;;;;;12.68;7.25;;;256.90;1740.80;;;;;;4879311;29;20033;-81
2021/01/23 04:53:52;;;;;;;13.23;6.85;;;256.80;1766.40;;;;;;4880960;29;20092;-80
2021/01/23 04:56:18;;;;;;;10.65;6.90;;;256.80;1766.40;;;;;;4879346;29;20396;-80
2021/01/23 04:58:44;;;;;;;14.88;7.28;;;256.70;1766.40;;;;;;4879662;29;20031;-80
2021/01/23 05:01:15;;;;;;;10.85;6.50;;;256.70;1766.40;;;;;;4879529;29;20111;-80
2021/01/23 05:04:01;;;;;;;10.88;7.00;;;256.80;1766.40;;;;;;4878456;29;20025;-80
2021/01/23 05:06:28;;;;;;;12.90;6.28;;;256.80;1766.40;;;;;;4879852;29;20105;-80
2021/01/23 05:08:54;;;;;;;13.95;6.82;;;256.80;1766.40;;;;;;4878898;29;20053;-79
2021/01/23 05:11:21;;;;;;;16.25;7.43;;;256.90;1740.80;;;;;;4878376;29;20045;-80
2021/01/23 05:14:09;;;;;;;10.15;6.25;;;256.90;1740.80;;;;;;4880558;29;20037;-79
2021/01/23 05:16:35;;;;;;;13.30;5.93;;;256.90;1740.80;;;;;;4879217;29;20059;-80
2021/01/23 05:19:04;;;;;;;9.18;5.72;;;281.60;1740.80;;;;;;4879806;29;20060;-81
2021/01/23 05:21:30;;;;;;;9.60;6.32;;;281.60;1766.40;;;;;;4879415;29;20477;-80
2021/01/23 05:24:03;;;;;;;10.60;6.15;;;281.60;1740.80;;;;;;4878617;29;20049;-79
2021/01/23 05:26:29;;;;;;;9.88;5.22;;;281.60;1766.40;;;;;;4879575;29;20033;-80
2021/01/23 05:29:14;;;;;;;11.50;6.18;;;281.60;1766.40;;;;;;4878767;29;20598;-79
2021/01/23 05:31:42;;;;;;;15.38;6.53;;;281.60;1740.80;;;;;;4880566;29;20499;-80
2021/01/23 05:34:27;;;;;;;13.85;6.65;;;281.60;1766.40;;;;;;4880580;29;20545;-80
2021/01/23 05:36:54;;;;;;;10.05;6.35;;;281.60;1766.40;;;;;;4879806;29;20113;-79
2021/01/23 05:39:20;;;;;;;11.95;5.75;;;256.90;1740.80;;;;;;4879090;29;20096;-80
2021/01/23 05:42:18;;;;;;;15.90;6.30;;;256.90;1740.80;;;;;;4879193;29;20769;-81
2021/01/23 05:45:21;;;;;;;8.27;6.07;;;256.90;1740.80;;;;;;4826258;29;20041;-81
2021/01/23 05:47:47;;;;;;;16.55;7.85;;;256.90;1740.80;;;;;;4838914;29;20053;-80
2021/01/23 05:50:12;;;;;;;12.10;5.97;;;256.90;1740.80;;;;;;4829213;29;20030;-80
2021/01/23 05:52:38;;;;;;;9.52;5.72;;;256.90;1740.80;;;;;;4829209;29;20034;-80
2021/01/23 05:55:05;;;;;;;10.45;5.82;;;256.90;1740.80;;;;;;4830032;29;20065;-80
2021/01/23 05:57:31;;;;;;;14.20;8.50;;;256.80;1740.80;;;;;;4844256;29;20030;-80
2021/01/23 05:59:56;;;;;;;10.82;5.90;;;256.80;1740.80;;;;;;4829796;29;20052;-80
2021/01/23 06:02:23;;;;;;;16.15;5.65;;;256.80;1740.80;;;;;;4830377;29;20030;-80
2021/01/23 06:04:50;;;;;;;10.25;5.78;;;256.90;1740.80;;;;;;4828521;29;20037;-79
2021/01/23 06:07:44;;;;;;;11.70;6.90;;;256.80;1740.80;;;;;;4844355;29;20045;-79
2021/01/23 06:10:22;;;;;;;12.02;6.13;;;256.80;1715.20;;;;;;4829241;29;20380;-79
2021/01/23 06:12:48;;;;;;;11.38;5.47;;;256.90;1715.20;;;;;;4829136;29;20094;-79
2021/01/23 06:15:32;;;;;;;8.45;5.03;;;256.90;1715.20;;;;;;4828325;29;20042;-79
2021/01/23 06:17:59;;;;;;;11.75;6.03;;;256.90;1689.60;;;;;;4836917;29;20512;-79
2021/01/23 06:20:40;;;;;;;10.40;6.32;;;281.60;1715.20;;;;;;4866053;29;20047;-79
2021/01/23 06:23:12;;;;;;;12.23;6.00;;;281.70;1715.20;;;;;;4900842;29;20028;-79
2021/01/23 06:25:50;;;;;;;10.63;5.47;;;281.70;1715.20;;;;;;4900696;29;20560;-80
2021/01/23 06:28:22;;;;;;;9.40;5.47;;;281.70;1715.20;;;;;;4901549;29;20056;-80
2021/01/23 06:30:52;;;;;;;9.00;5.35;;;281.70;1715.20;;;;;;4901141;29;20059;-80
2021/01/23 06:33:23;;;;;;;15.23;6.35;;;281.70;1715.20;;;;;;4899645;29;20439;-80
2021/01/23 06:36:08;;;;;;;12.13;6.22;;;281.70;1715.20;;;;;;4883343;29;20122;-80
2021/01/23 06:38:34;;;;;;;18.55;7.57;;;281.70;1715.20;;;;;;4883111;29;20060;-79
2021/01/23 06:41:25;;;;;;;10.77;6.35;;;281.70;1715.20;;;;;;4881596;29;20041;-79
2021/01/23 06:44:06;;;;;;;16.30;8.77;;;281.70;1740.80;;;;;;4882214;29;20033;-79
2021/01/23 06:46:43;;;;;;;12.85;8.05;;;256.90;1715.20;;;;;;4881098;29;20033;-79
2021/01/23 06:49:14;;;;;;;13.80;8.20;;;256.80;1740.80;;;;;;4887934;29;20057;-79
2021/01/23 06:51:43;;;;;;;13.82;7.50;;;256.70;1766.40;;;;;;4883158;29;20028;-79
2021/01/23 06:54:20;;;;;;;13.93;7.82;;;256.60;1766.40;;;;;;4887301;29;20039;-79
2021/01/23 06:56:47;;;;;;;15.25;8.13;;;256.50;1766.40;;;;;;4884925;29;20025;-79
2021/01/23 06:59:32;;;;;;;16.38;9.75;;;256.50;1766.40;;;;;;4880750;29;20096;-80
2021/01/23 07:02:13;;;;;;;24.30;10.32;;;256.40;1766.40;;;;;;4893829;29;20025;-79
2021/01/23 07:04:49;;;;;;;23.40;13.00;;;256.40;1766.40;;;;;;4886007;29;20081;-79
2021/01/23 07:07:16;;;;;;;24.98;13.02;;;256.40;1792.00;;;;;;4883118;29;20032;-78
2021/01/23 07:09:45;;;;;;;31.00;17.10;;;256.30;1792.00;;;;;;4897627;29;20056;-79
2021/01/23 07:12:11;;;;;;;27.05;14.15;;;256.30;1792.00;;;;;;4899242;29;20469;-78
2021/01/23 07:14:37;;;;;;;22.42;11.93;;;256.30;1792.00;;;;;;4900938;29;20033;-78
2021/01/23 07:17:03;;;;;;;23.95;11.65;;;256.30;1792.00;;;;;;4896900;29;20450;-79
2021/01/23 07:19:29;;;;;;;20.13;8.98;;;256.20;1792.00;;;;;;4879545;29;20029;-79
2021/01/23 07:21:55;;;;;;;21.08;9.65;;;256.30;1792.00;;;;;;4879411;29;20085;-79
2021/01/23 07:24:22;;;;;;;24.35;13.13;;;256.30;1766.40;;;;;;4879848;29;20041;-79
2021/01/23 07:26:47;;;;;;;20.15;10.48;;;256.40;1766.40;;;;;;4879759;29;20108;-79
2021/01/23 07:29:13;;;;;;;19.88;11.88;;;256.40;1766.40;;;;;;4879842;29;20044;-79
2021/01/23 07:31:39;;;;;;;22.88;11.13;;;256.40;1766.40;;;;;;4880896;29;20401;-79
2021/01/23 07:34:13;;;;;;;19.85;11.77;;;256.50;1766.40;;;;;;4898284;29;20029;-79
2021/01/23 07:36:40;;;;;;;15.52;9.95;;;256.50;1766.40;;;;;;4896928;29;20033;-79
2021/01/23 07:39:14;;;;;;;19.30;10.73;;;256.50;1766.40;;;;;;4879464;29;20045;-80
2021/01/23 07:41:52;;;;;;;20.15;12.60;;;256.60;1766.40;;;;;;4879899;29;20033;-79
2021/01/23 07:44:19;;;;;;;17.25;11.73;;;256.60;1766.40;;;;;;4878521;29;20048;-79
2021/01/23 07:46:47;;;;;;;16.88;9.40;;;256.50;1740.80;;;;;;4879486;29;20371;-79
2021/01/23 07:49:26;;;;;;;14.43;9.52;;;256.50;1740.80;;;;;;4880680;29;20033;-79
2021/01/23 07:52:05;;;;;;;19.83;10.55;;;256.60;1740.80;;;;;;4883098;29;20049;-79
2021/01/23 07:54:31;;;;;;;23.15;12.55;;;256.50;1740.80;;;;;;4890912;29;20482;-79
2021/01/23 07:56:58;;;;;;;16.95;11.50;;;256.50;1766.40;;;;;;4880344;29;20037;-79
2021/01/23 07:59:44;;;;;;;16.83;11.15;;;256.50;1766.40;;;;;;4879387;29;20033;-80
2021/01/23 08:02:09;;;;;;;23.08;12.68;;;256.50;1766.40;;;;;;4896672;29;20024;-79
2021/01/23 08:04:37;;;;;;;17.02;10.32;;;256.40;1766.40;;;;;;4897558;29;20056;-79
2021/01/23 08:07:21;;;;;;;19.17;12.13;;;256.40;1766.40;;;;;;4899295;29;20037;-79
2021/01/23 08:10:06;;;;;;;18.67;11.88;;;256.50;1766.40;;;;;;4881471;29;20555;-79
2021/01/23 08:12:32;;;;;;;22.55;10.25;;;256.50;1766.40;;;;;;4891322;29;20032;-79
2021/01/23 08:14:58;;;;;;;17.92;10.45;;;256.50;1766.40;;;;;;4895819;29;20484;-79
2021/01/23 08:17:41;;;;;;;22.30;12.15;;;256.50;1766.40;;;;;;4881387;29;20500;-79
2021/01/23 08:20:18;;;;;;;19.55;13.07;;;256.60;1766.40;;;;;;4889215;29;20408;-79
2021/01/23 08:22:54;;;;;;;;;;;256.60;1766.40;;;;;;4899784;29;20029;-79
2021/01/23 08:25:28;;;;;;;17.15;11.13;;;256.70;1740.80;;;;;;4898334;29;19915;-80
2021/01/23 08:27:56;;;;;;;16.98;9.70;;;256.70;1740.80;;;;;;4897295;29;20132;-80
2021/01/23 08:30:22;;;;;;;18.08;10.50;;;256.80;1715.20;;;;;;4898208;29;20033;-80
2021/01/23 08:32:49;;;;;;;18.23;9.45;;;256.80;1715.20;;;;;;4897477;29;20025;-79
2021/01/23 08:35:16;;;;;;;19.80;9.13;;;256.80;1715.20;;;;;;4898040;29;20024;-79
2021/01/23 08:37:42;;;;;;;16.88;9.27;;;256.80;1715.20;;;;;;4897116;29;20519;-78
2021/01/23 08:40:08;;;;;;;21.05;11.75;;;256.90;1689.60;;;;;;4897885;29;20037;-79
2021/01/23 08:42:34;;;;;;;20.02;10.07;;;256.90;1689.60;;;;;;4898764;29;20025;-79
2021/01/23 08:44:59;;;;;;;17.38;10.18;;;256.90;1689.60;;;;;;4890821;29;20108;-79
2021/01/23 08:47:25;;;;;;;15.35;10.63;;;256.90;1715.20;;;;;;4877544;29;20044;-77
2021/01/23 08:49:51;;;;;;;23.48;11.55;;;256.90;1689.60;;;;;;4880097;29;20057;-78
2021/01/23 08:52:16;;;;;;;20.55;10.55;;;256.90;1689.60;;;;;;4877725;29;20044;-79
2021/01/23 08:54:42;;;;;;;15.75;8.82;;;281.60;1715.20;;;;;;4879932;29;20033;-79
2021/01/23 08:57:08;;;;;;;16.67;10.75;;;281.70;1715.20;;;;;;4879865;29;20430;-79
2021/01/23 08:59:33;;;;;;;19.33;12.77;;;281.70;1715.20;;;;;;4879919;29;20029;-79
2021/01/23 09:01:59;;;;;;;23.80;10.80;;;281.70;1715.20;;;;;;4879948;29;20040;-79
2021/01/23 09:04:25;;;;;;;18.08;10.48;;;281.70;1715.20;;;;;;4879438;29;20660;-79
2021/01/23 09:06:50;;;;;;;22.17;12.32;;;281.80;1715.20;;;;;;4883377;29;20028;-79
2021/01/23 09:09:16;;;;;;;17.52;12.02;;;281.80;1715.20;;;;;;4896753;29;20049;-79
2021/01/23 09:11:42;;;;;;;18.50;11.82;;;281.70;1715.20;;;;;;4899026;29;20063;-80
2021/01/23 09:14:09;;;;;;;26.92;14.55;;;281.70;1715.20;;;;;;4890884;29;20036;-79
2021/01/23 09:16:34;;;;;;;25.60;15.55;;;281.70;1715.20;;;;;;4879908;29;20025;-80
2021/01/23 09:19:00;;;;;;;24.27;15.85;;;281.70;1715.20;;;;;;4878579;29;20085;-81
2021/01/23 09:21:27;;;;;;;23.75;14.25;;;281.60;1740.80;;;;;;4885565;29;20105;-79
2021/01/23 09:23:52;;;;;;;27.52;15.00;;;281.60;1740.80;;;;;;4895674;29;20497;-79
2021/01/23 09:26:18;;;;;;;22.65;13.95;;;281.60;1740.80;;;;;;4896787;29;20037;-79
2021/01/23 09:28:44;;;;;;;23.63;14.32;;;281.70;1740.80;;;;;;4896073;29;20100;-79
2021/01/23 09:31:10;;;;;;;22.60;13.52;;;281.70;1740.80;;;;;;4882876;29;20029;-80
2021/01/23 09:33:35;;;;;;;25.63;14.73;;;281.80;1740.80;;;;;;4878308;29;20025;-79
2021/01/23 09:36:01;;;;;;;23.55;14.25;;;281.90;1715.20;;;;;;4877198;29;20033;-79
2021/01/23 09:38:27;;;;;;;33.67;18.20;;;281.90;1715.20;;;;;;4878006;29;20039;-79
2021/01/23 09:40:53;;;;;;;26.98;16.02;;;281.90;1689.60;;;;;;4877867;29;20443;-79
2021/01/23 09:43:19;;;;;;;40.45;18.75;;;282.00;1689.60;;;;;;4890069;29;20086;-79
2021/01/23 09:45:45;;;;;;;34.75;17.45;;;282.00;1689.60;;;;;;4881477;29;20037;-79
2021/01/23 09:48:11;;;;;;;28.85;15.07;;;282.00;1689.60;;;;;;4877822;29;20026;-79
2021/01/23 09:50:37;;;;;;;28.17;15.68;;;282.10;1689.60;;;;;;4883858;29;20055;-79
2021/01/23 09:53:04;;;;;;;25.73;15.70;;;282.10;1689.60;;;;;;4888607;29;20029;-79
2021/01/23 09:55:30;;;;;;;30.35;17.90;;;282.10;1689.60;;;;;;4896422;29;20404;-79
2021/01/23 09:57:56;;;;;;;29.75;15.70;;;282.10;1689.60;;;;;;4885611;29;20029;-79
2021/01/23 10:00:22;;;;;;;35.22;21.67;;;282.10;1689.60;;;;;;4887789;29;20052;-79
2021/01/23 10:02:47;;;;;;;29.50;17.88;;;282.10;1689.60;;;;;;4897223;29;20035;-79
2021/01/23 10:05:14;;;;;;;25.10;18.40;;;282.20;1689.60;;;;;;4895875;29;20029;-79
2021/01/23 10:07:39;;;;;;;21.77;15.13;;;282.20;1689.60;;;;;;4896513;29;20096;-80
2021/01/23 10:10:06;;;;;;;27.08;12.27;;;282.30;1689.60;;;;;;4896154;29;20132;-79
2021/01/23 10:12:32;;;;;;;19.40;12.85;;;282.30;1664.00;;;;;;4895025;29;20068;-79
2021/01/23 10:14:58;;;;;;;20.50;11.73;;;282.30;1689.60;;;;;;4896598;29;20039;-79
2021/01/23 10:17:24;;;;;;;18.33;11.75;;;282.30;1689.60;;;;;;4880239;29;20104;-78
2021/01/23 10:19:50;;;;;;;19.55;12.52;;;282.40;1689.60;;;;;;4878324;29;20029;-79
2021/01/23 10:22:16;;;;;;;24.50;15.25;;;282.50;1689.60;;;;;;4889356;29;20036;-79
2021/01/23 10:24:42;;;;;;;27.95;16.80;;;282.50;1689.60;;;;;;4895647;29;20401;-78
2021/01/23 10:27:08;;;;;;;25.50;17.65;;;282.50;1689.60;;;;;;4896398;29;20052;-79
2021/01/23 10:29:34;;;;;;;22.90;12.65;;;307.20;1715.20;;;;;;4894947;29;20143;-80
2021/01/23 10:32:01;;;;;;;20.77;11.93;;;307.20;1715.20;;;;;;4878562;29;20540;-79
2021/01/23 10:34:27;;;;;;;21.45;14.98;;;307.20;1689.60;;;;;;4878142;29;20033;-80
2021/01/23 10:36:53;;;;;;;20.77;13.63;;;307.20;1689.60;;;;;;4897577;29;20115;-79
2021/01/23 10:39:19;;;;;;;18.02;12.70;;;307.30;1715.20;;;;;;4900723;29;20044;-79
2021/01/23 10:41:45;;;;;;;20.95;13.68;;;307.30;1689.60;;;;;;4892640;29;20033;-80
2021/01/23 10:44:11;;;;;;;24.55;15.13;;;307.30;1689.60;;;;;;4887569;29;20060;-79
2021/01/23 10:46:37;;;;;;;20.65;14.43;;;307.30;1689.60;;;;;;4894277;29;20029;-81
2021/01/23 10:49:04;;;;;;;17.73;12.20;;;307.30;1689.60;;;;;;4883872;29;20037;-80
2021/01/23 10:51:30;;;;;;;22.83;13.60;;;307.30;1715.20;;;;;;4881916;29;20033;-80
2021/01/23 10:53:55;;;;;;;22.85;12.93;;;307.30;1715.20;;;;;;4882017;29;20036;-79
2021/01/23 10:56:21;;;;;;;26.25;16.02;;;307.30;1689.60;;;;;;4881976;29;20029;-79
2021/01/23 10:58:47;;;;;;;26.23;16.92;;;307.40;1689.60;;;;;;4898553;29;20040;-80
2021/01/23 11:01:13;;;;;;;32.33;18.20;;;307.40;1689.60;;;;;;4898201;29;20163;-79
2021/01/23 11:03:38;;;;;;;43.78;23.00;;;307.40;1689.60;;;;;;4880289;29;20109;-79
2021/01/23 11:06:04;;;;;;;43.85;20.17;;;307.40;1715.20;;;;;;4890396;29;20033;-79
2021/01/23 11:08:30;;;;;;;37.80;21.70;;;307.30;1689.60;;;;;;4880975;29;20053;-79
2021/01/23 11:10:56;;;;;;;26.35;16.30;;;307.40;1715.20;;;;;;4881197;29;20065;-79
2021/01/23 11:13:22;;;;;;;23.85;14.55;;;307.40;1715.20;;;;;;4894580;29;20032;-79
2021/01/23 11:15:48;;;;;;;21.95;14.52;;;307.40;1715.20;;;;;;4899546;29;20025;-78
2021/01/23 11:18:14;;;;;;;21.88;14.70;;;307.40;1715.20;;;;;;4897762;29;20028;-79
2021/01/23 11:20:39;;;;;;;27.13;18.55;;;307.40;1715.20;;;;;;4887257;29;20771;-79
2021/01/23 11:23:05;;;;;;;17.83;12.25;;;307.40;1715.20;;;;;;4881570;29;20040;-79
2021/01/23 11:25:31;;;;;;;13.77;9.52;;;307.40;1715.20;;;;;;4880455;29;20430;-79
2021/01/23 11:27:57;;;;;;;18.73;11.45;;;307.40;1689.60;;;;;;4890756;29;20052;-79
2021/01/23 11:30:26;;;;;;;19.30;10.70;;;307.50;1715.20;;;;;;4881453;29;20835;-79
2021/01/23 11:32:52;;;;;;;14.23;10.05;;;307.40;1715.20;;;;;;4880585;29;20559;-79
2021/01/23 11:35:18;;;;;;;14.30;9.38;;;307.50;1715.20;;;;;;4896141;29;20044;-79
2021/01/23 11:37:44;;;;;;;14.13;9.50;;;307.50;1715.20;;;;;;4888424;29;20067;-80
2021/01/23 11:40:10;;;;;;;17.15;12.20;;;307.50;1689.60;;;;;;4897122;29;20717;-80
2021/01/23 11:42:36;;;;;;;17.27;11.48;;;307.60;1689.60;;;;;;4894836;29;20117;-79
2021/01/23 11:45:04;;;;;;;14.70;10.68;;;307.60;1689.60;;;;;;4878694;29;20120;-79
2021/01/23 11:47:30;;;;;;;13.32;10.23;;;307.60;1689.60;;;;;;4879181;29;20033;-79
2021/01/23 11:49:56;;;;;;;15.93;10.32;;;307.60;1689.60;;;;;;4885950;29;20039;-80
2021/01/23 11:52:22;;;;;;;23.98;13.75;;;307.60;1689.60;;;;;;4898010;29;20031;-80
2021/01/23 11:54:47;;;;;;;16.83;11.70;;;307.60;1689.60;;;;;;4893580;29;20021;-80
2021/01/23 11:57:14;;;;;;;18.20;13.50;;;307.60;1689.60;;;;;;4878591;29;20041;-79
2021/01/23 11:59:41;;;;;;;22.15;12.52;;;307.70;1689.60;;;;;;4878735;29;20116;-80
2021/01/23 12:02:07;;;;;;;21.08;12.20;;;307.60;1689.60;;;;;;4878951;29;20199;-80
2021/01/23 12:04:33;;;;;;;15.10;9.73;;;307.60;1689.60;;;;;;4888686;29;20029;-79
2021/01/23 12:06:59;;;;;;;31.90;18.33;;;307.60;1689.60;;;;;;4890752;29;20039;-81
2021/01/23 12:09:25;;;;;;;33.47;20.08;;;307.70;1689.60;;;;;;4892562;29;20577;-79
2021/01/23 12:11:53;;;;;;;16.13;11.90;;;307.70;1689.60;;;;;;4882581;29;20056;-80